sensor_id;sensor_type;location;lat;lon;timestamp;P1;durP1;ratioP1;P2;durP2;ratioP2
28343;SDS011;15597;50.914;6.638;2023-04-29T00:00:19;11.77;;;6.07;;
28343;SDS011;15597;50.914;6.638;2023-04-29T00:02:45;8.30;;;4.80;;
28343;SDS011;15597;50.914;6.638;2023-04-29T00:05:10;12.07;;;6.53;;
28343;SDS011;15597;50.914;6.638;2023-04-29T00:07:36;9.00;;;4.88;;
28343;SDS011;15597;50.914;6.638;2023-04-29T00:10:02;14.05;;;7.35;;
28343;SDS011;15597;50.914;6.638;2023-04-29T00:12:29;10.52;;;5.80;;
28343;SDS011;15597;50.914;6.638;2023-04-29T00:14:56;8.80;;;4.97;;
28343;SDS011;15597;50.914;6.638;2023-04-29T00:17:22;10.27;;;5.70;;
28343;SDS011;15597;50.914;6.638;2023-04-29T00:19:47;11.82;;;6.40;;
28343;SDS011;15597;50.914;6.638;2023-04-29T00:22:14;14.77;;;7.28;;
28343;SDS011;15597;50.914;6.638;2023-04-29T00:24:40;11.05;;;6.28;;
28343;SDS011;15597;50.914;6.638;2023-04-29T00:27:06;15.43;;;7.72;;
28343;SDS011;15597;50.914;6.638;2023-04-29T00:29:31;14.25;;;7.60;;
28343;SDS011;15597;50.914;6.638;2023-04-29T00:31:57;16.30;;;8.55;;
28343;SDS011;15597;50.914;6.638;2023-04-29T00:34:23;13.18;;;6.72;;
28343;SDS011;15597;50.914;6.638;2023-04-29T00:36:48;14.20;;;7.25;;
28343;SDS011;15597;50.914;6.638;2023-04-29T00:39:16;14.82;;;6.47;;
28343;SDS011;15597;50.914;6.638;2023-04-29T00:41:42;15.93;;;8.73;;
28343;SDS011;15597;50.914;6.638;2023-04-29T00:44:08;16.80;;;9.02;;
28343;SDS011;15597;50.914;6.638;2023-04-29T00:46:34;13.55;;;6.63;;
28343;SDS011;15597;50.914;6.638;2023-04-29T00:48:59;17.15;;;8.50;;
28343;SDS011;15597;50.914;6.638;2023-04-29T00:51:25;14.90;;;7.55;;
28343;SDS011;15597;50.914;6.638;2023-04-29T00:53:52;11.90;;;6.50;;
28343;SDS011;15597;50.914;6.638;2023-04-29T00:56:18;10.20;;;5.20;;
28343;SDS011;15597;50.914;6.638;2023-04-29T00:58:45;12.10;;;6.07;;
28343;SDS011;15597;50.914;6.638;2023-04-29T01:01:23;13.55;;;7.63;;
28343;SDS011;15597;50.914;6.638;2023-04-29T01:03:49;11.68;;;5.30;;
28343;SDS011;15597;50.914;6.638;2023-04-29T01:11:48;17.65;;;8.85;;
28343;SDS011;15597;50.914;6.638;2023-04-29T01:14:22;16.38;;;8.80;;
28343;SDS011;15597;50.914;6.638;2023-04-29T01:16:50;15.00;;;7.72;;
28343;SDS011;15597;50.914;6.638;2023-04-29T01:21:55;19.98;;;9.63;;
28343;SDS011;15597;50.914;6.638;2023-04-29T01:24:21;15.43;;;8.30;;
28343;SDS011;15597;50.914;6.638;2023-04-29T01:26:49;20.10;;;9.15;;
28343;SDS011;15597;50.914;6.638;2023-04-29T01:32:28;11.60;;;5.95;;
28343;SDS011;15597;50.914;6.638;2023-04-29T01:37:48;13.85;;;6.65;;
28343;SDS011;15597;50.914;6.638;2023-04-29T01:40:32;23.10;;;12.00;;
28343;SDS011;15597;50.914;6.638;2023-04-29T01:43:10;18.75;;;9.13;;
28343;SDS011;15597;50.914;6.638;2023-04-29T01:45:38;20.67;;;9.95;;
28343;SDS011;15597;50.914;6.638;2023-04-29T01:48:08;22.58;;;10.73;;
28343;SDS011;15597;50.914;6.638;2023-04-29T01:50:35;21.05;;;9.73;;
28343;SDS011;15597;50.914;6.638;2023-04-29T01:53:08;18.40;;;8.32;;
28343;SDS011;15597;50.914;6.638;2023-04-29T01:55:34;14.38;;;7.50;;
28343;SDS011;15597;50.914;6.638;2023-04-29T01:58:12;16.13;;;8.20;;
28343;SDS011;15597;50.914;6.638;2023-04-29T02:00:47;21.63;;;10.82;;
28343;SDS011;15597;50.914;6.638;2023-04-29T02:03:13;16.70;;;7.85;;
28343;SDS011;15597;50.914;6.638;2023-04-29T02:05:41;20.35;;;10.00;;
28343;SDS011;15597;50.914;6.638;2023-04-29T02:08:06;18.80;;;10.00;;
28343;SDS011;15597;50.914;6.638;2023-04-29T02:10:37;19.70;;;10.48;;
28343;SDS011;15597;50.914;6.638;2023-04-29T02:13:13;21.05;;;10.18;;
28343;SDS011;15597;50.914;6.638;2023-04-29T02:15:39;24.13;;;11.77;;
28343;SDS011;15597;50.914;6.638;2023-04-29T02:18:05;16.13;;;7.72;;
28343;SDS011;15597;50.914;6.638;2023-04-29T02:20:31;17.00;;;8.73;;
28343;SDS011;15597;50.914;6.638;2023-04-29T02:22:56;18.30;;;8.80;;
28343;SDS011;15597;50.914;6.638;2023-04-29T02:25:21;22.42;;;9.98;;
28343;SDS011;15597;50.914;6.638;2023-04-29T02:27:47;29.33;;;13.07;;
28343;SDS011;15597;50.914;6.638;2023-04-29T02:30:12;24.60;;;12.65;;
28343;SDS011;15597;50.914;6.638;2023-04-29T02:32:39;17.55;;;7.70;;
28343;SDS011;15597;50.914;6.638;2023-04-29T02:35:05;18.92;;;9.55;;
28343;SDS011;15597;50.914;6.638;2023-04-29T02:37:32;24.25;;;11.38;;
28343;SDS011;15597;50.914;6.638;2023-04-29T02:39:58;20.85;;;10.85;;
28343;SDS011;15597;50.914;6.638;2023-04-29T02:42:24;21.48;;;10.95;;
28343;SDS011;15597;50.914;6.638;2023-04-29T02:44:49;24.02;;;12.43;;
28343;SDS011;15597;50.914;6.638;2023-04-29T02:47:15;26.60;;;13.13;;
28343;SDS011;15597;50.914;6.638;2023-04-29T02:49:40;23.05;;;12.48;;
28343;SDS011;15597;50.914;6.638;2023-04-29T02:52:06;24.25;;;12.25;;
28343;SDS011;15597;50.914;6.638;2023-04-29T02:54:33;26.45;;;12.68;;
28343;SDS011;15597;50.914;6.638;2023-04-29T02:56:58;24.90;;;12.82;;
28343;SDS011;15597;50.914;6.638;2023-04-29T02:59:24;25.73;;;12.13;;
28343;SDS011;15597;50.914;6.638;2023-04-29T03:01:49;22.23;;;10.80;;
28343;SDS011;15597;50.914;6.638;2023-04-29T03:04:15;28.58;;;14.18;;
28343;SDS011;15597;50.914;6.638;2023-04-29T03:06:40;32.95;;;15.25;;
28343;SDS011;15597;50.914;6.638;2023-04-29T03:09:06;31.13;;;15.50;;
28343;SDS011;15597;50.914;6.638;2023-04-29T03:11:32;37.20;;;16.65;;
28343;SDS011;15597;50.914;6.638;2023-04-29T03:13:57;42.35;;;18.92;;
28343;SDS011;15597;50.914;6.638;2023-04-29T03:16:23;35.53;;;15.77;;
28343;SDS011;15597;50.914;6.638;2023-04-29T03:18:49;24.88;;;12.38;;
28343;SDS011;15597;50.914;6.638;2023-04-29T03:21:14;25.25;;;11.20;;
28343;SDS011;15597;50.914;6.638;2023-04-29T03:23:40;36.58;;;17.63;;
28343;SDS011;15597;50.914;6.638;2023-04-29T03:26:08;47.42;;;20.17;;
28343;SDS011;15597;50.914;6.638;2023-04-29T03:28:33;33.85;;;16.08;;
28343;SDS011;15597;50.914;6.638;2023-04-29T03:30:59;39.58;;;18.50;;
28343;SDS011;15597;50.914;6.638;2023-04-29T03:33:25;39.05;;;18.23;;
28343;SDS011;15597;50.914;6.638;2023-04-29T03:35:50;28.88;;;13.10;;
28343;SDS011;15597;50.914;6.638;2023-04-29T03:38:16;42.13;;;19.02;;
28343;SDS011;15597;50.914;6.638;2023-04-29T03:40:42;48.22;;;21.73;;
28343;SDS011;15597;50.914;6.638;2023-04-29T03:43:09;35.10;;;17.17;;
28343;SDS011;15597;50.914;6.638;2023-04-29T03:45:35;43.15;;;19.30;;
28343;SDS011;15597;50.914;6.638;2023-04-29T03:48:02;35.22;;;16.45;;
28343;SDS011;15597;50.914;6.638;2023-04-29T03:50:28;43.97;;;19.33;;
28343;SDS011;15597;50.914;6.638;2023-04-29T03:52:54;39.22;;;16.38;;
28343;SDS011;15597;50.914;6.638;2023-04-29T03:55:20;48.28;;;22.73;;
28343;SDS011;15597;50.914;6.638;2023-04-29T03:57:46;43.05;;;19.30;;
28343;SDS011;15597;50.914;6.638;2023-04-29T04:00:14;41.63;;;19.33;;
28343;SDS011;15597;50.914;6.638;2023-04-29T04:02:45;39.08;;;18.35;;
28343;SDS011;15597;50.914;6.638;2023-04-29T04:05:11;41.70;;;18.88;;
28343;SDS011;15597;50.914;6.638;2023-04-29T04:07:40;38.58;;;16.85;;
28343;SDS011;15597;50.914;6.638;2023-04-29T04:10:35;36.95;;;15.65;;
28343;SDS011;15597;50.914;6.638;2023-04-29T04:13:05;32.35;;;15.18;;
28343;SDS011;15597;50.914;6.638;2023-04-29T04:15:31;33.22;;;14.95;;
28343;SDS011;15597;50.914;6.638;2023-04-29T04:17:57;34.67;;;14.60;;
28343;SDS011;15597;50.914;6.638;2023-04-29T04:20:23;35.80;;;14.77;;
28343;SDS011;15597;50.914;6.638;2023-04-29T04:22:48;31.55;;;14.52;;
28343;SDS011;15597;50.914;6.638;2023-04-29T04:25:22;31.65;;;13.95;;
28343;SDS011;15597;50.914;6.638;2023-04-29T04:27:49;31.98;;;14.32;;
28343;SDS011;15597;50.914;6.638;2023-04-29T04:30:26;31.02;;;13.48;;
28343;SDS011;15597;50.914;6.638;2023-04-29T04:32:52;31.77;;;13.57;;
28343;SDS011;15597;50.914;6.638;2023-04-29T04:35:18;28.85;;;13.77;;
28343;SDS011;15597;50.914;6.638;2023-04-29T04:37:43;33.13;;;14.20;;
28343;SDS011;15597;50.914;6.638;2023-04-29T04:40:09;31.73;;;14.55;;
28343;SDS011;15597;50.914;6.638;2023-04-29T04:42:46;33.50;;;14.13;;
28343;SDS011;15597;50.914;6.638;2023-04-29T04:45:13;29.60;;;14.25;;
28343;SDS011;15597;50.914;6.638;2023-04-29T04:47:46;29.40;;;13.52;;
28343;SDS011;15597;50.914;6.638;2023-04-29T04:50:19;32.35;;;13.95;;
28343;SDS011;15597;50.914;6.638;2023-04-29T04:52:46;29.35;;;13.43;;
28343;SDS011;15597;50.914;6.638;2023-04-29T04:55:19;29.67;;;14.77;;
28343;SDS011;15597;50.914;6.638;2023-04-29T04:57:48;27.55;;;12.77;;
28343;SDS011;15597;50.914;6.638;2023-04-29T05:00:15;30.40;;;14.13;;
28343;SDS011;15597;50.914;6.638;2023-04-29T05:02:41;27.75;;;12.77;;
28343;SDS011;15597;50.914;6.638;2023-04-29T05:05:07;27.17;;;12.90;;
28343;SDS011;15597;50.914;6.638;2023-04-29T05:07:35;25.13;;;11.75;;
28343;SDS011;15597;50.914;6.638;2023-04-29T05:10:03;26.42;;;12.48;;
28343;SDS011;15597;50.914;6.638;2023-04-29T05:12:31;27.65;;;12.23;;
28343;SDS011;15597;50.914;6.638;2023-04-29T05:17:27;25.08;;;11.98;;
28343;SDS011;15597;50.914;6.638;2023-04-29T05:19:54;21.92;;;10.20;;
28343;SDS011;15597;50.914;6.638;2023-04-29T05:22:20;25.38;;;11.05;;
28343;SDS011;15597;50.914;6.638;2023-04-29T05:24:46;27.08;;;12.32;;
28343;SDS011;15597;50.914;6.638;2023-04-29T05:27:14;26.85;;;11.40;;
28343;SDS011;15597;50.914;6.638;2023-04-29T05:29:40;25.35;;;11.40;;
28343;SDS011;15597;50.914;6.638;2023-04-29T05:32:06;24.02;;;11.13;;
28343;SDS011;15597;50.914;6.638;2023-04-29T05:34:32;23.75;;;11.57;;
28343;SDS011;15597;50.914;6.638;2023-04-29T05:36:58;24.92;;;11.40;;
28343;SDS011;15597;50.914;6.638;2023-04-29T05:39:23;26.83;;;11.82;;
28343;SDS011;15597;50.914;6.638;2023-04-29T05:42:01;22.35;;;11.07;;
28343;SDS011;15597;50.914;6.638;2023-04-29T05:44:36;22.83;;;10.45;;
28343;SDS011;15597;50.914;6.638;2023-04-29T05:47:02;20.55;;;9.80;;
28343;SDS011;15597;50.914;6.638;2023-04-29T05:49:28;25.02;;;11.60;;
28343;SDS011;15597;50.914;6.638;2023-04-29T05:51:54;23.42;;;11.25;;
28343;SDS011;15597;50.914;6.638;2023-04-29T05:54:20;19.23;;;8.48;;
28343;SDS011;15597;50.914;6.638;2023-04-29T05:56:46;24.17;;;11.27;;
28343;SDS011;15597;50.914;6.638;2023-04-29T05:59:12;22.40;;;10.10;;
28343;SDS011;15597;50.914;6.638;2023-04-29T06:01:38;20.63;;;9.77;;
28343;SDS011;15597;50.914;6.638;2023-04-29T06:04:04;22.98;;;11.13;;
28343;SDS011;15597;50.914;6.638;2023-04-29T06:06:39;21.15;;;9.50;;
28343;SDS011;15597;50.914;6.638;2023-04-29T06:09:18;20.42;;;9.88;;
28343;SDS011;15597;50.914;6.638;2023-04-29T06:11:45;20.65;;;9.98;;
28343;SDS011;15597;50.914;6.638;2023-04-29T06:14:11;23.35;;;8.88;;
28343;SDS011;15597;50.914;6.638;2023-04-29T06:16:38;19.52;;;9.05;;
28343;SDS011;15597;50.914;6.638;2023-04-29T06:19:04;21.35;;;10.50;;
28343;SDS011;15597;50.914;6.638;2023-04-29T06:21:30;20.02;;;9.77;;
28343;SDS011;15597;50.914;6.638;2023-04-29T06:23:56;18.27;;;8.40;;
28343;SDS011;15597;50.914;6.638;2023-04-29T06:26:22;20.20;;;10.07;;
28343;SDS011;15597;50.914;6.638;2023-04-29T06:28:48;17.67;;;8.32;;
28343;SDS011;15597;50.914;6.638;2023-04-29T06:31:14;18.80;;;9.75;;
28343;SDS011;15597;50.914;6.638;2023-04-29T06:33:41;16.90;;;8.68;;
28343;SDS011;15597;50.914;6.638;2023-04-29T06:36:07;18.73;;;8.82;;
28343;SDS011;15597;50.914;6.638;2023-04-29T06:38:36;16.25;;;8.32;;
28343;SDS011;15597;50.914;6.638;2023-04-29T06:41:28;18.63;;;8.88;;
28343;SDS011;15597;50.914;6.638;2023-04-29T06:44:21;19.05;;;8.63;;
28343;SDS011;15597;50.914;6.638;2023-04-29T06:47:06;19.00;;;8.77;;
28343;SDS011;15597;50.914;6.638;2023-04-29T06:49:44;14.82;;;8.05;;
28343;SDS011;15597;50.914;6.638;2023-04-29T06:52:10;16.75;;;8.32;;
28343;SDS011;15597;50.914;6.638;2023-04-29T06:54:35;17.20;;;8.18;;
28343;SDS011;15597;50.914;6.638;2023-04-29T06:57:01;17.02;;;8.00;;
28343;SDS011;15597;50.914;6.638;2023-04-29T06:59:27;15.10;;;7.78;;
28343;SDS011;15597;50.914;6.638;2023-04-29T07:01:52;21.58;;;7.93;;
28343;SDS011;15597;50.914;6.638;2023-04-29T07:04:18;16.50;;;8.25;;
28343;SDS011;15597;50.914;6.638;2023-04-29T07:09:12;17.67;;;8.52;;
28343;SDS011;15597;50.914;6.638;2023-04-29T07:11:38;18.80;;;9.20;;
28343;SDS011;15597;50.914;6.638;2023-04-29T07:14:05;14.60;;;7.63;;
28343;SDS011;15597;50.914;6.638;2023-04-29T07:16:31;17.48;;;8.80;;
28343;SDS011;15597;50.914;6.638;2023-04-29T07:18:57;17.25;;;8.35;;
28343;SDS011;15597;50.914;6.638;2023-04-29T07:21:23;16.60;;;8.95;;
28343;SDS011;15597;50.914;6.638;2023-04-29T07:23:49;16.73;;;8.38;;
28343;SDS011;15597;50.914;6.638;2023-04-29T07:26:15;15.68;;;7.40;;
28343;SDS011;15597;50.914;6.638;2023-04-29T07:28:44;17.50;;;8.00;;
28343;SDS011;15597;50.914;6.638;2023-04-29T07:31:10;16.48;;;7.35;;
28343;SDS011;15597;50.914;6.638;2023-04-29T07:33:38;18.65;;;8.63;;
28343;SDS011;15597;50.914;6.638;2023-04-29T07:36:04;16.88;;;8.73;;
28343;SDS011;15597;50.914;6.638;2023-04-29T07:38:31;16.60;;;8.02;;
28343;SDS011;15597;50.914;6.638;2023-04-29T07:40:58;15.60;;;8.60;;
28343;SDS011;15597;50.914;6.638;2023-04-29T07:43:25;19.25;;;8.82;;
28343;SDS011;15597;50.914;6.638;2023-04-29T07:45:50;13.00;;;6.70;;
28343;SDS011;15597;50.914;6.638;2023-04-29T07:48:16;15.27;;;7.22;;
28343;SDS011;15597;50.914;6.638;2023-04-29T07:50:41;16.38;;;7.78;;
28343;SDS011;15597;50.914;6.638;2023-04-29T07:53:08;12.05;;;6.38;;
28343;SDS011;15597;50.914;6.638;2023-04-29T07:55:36;33.70;;;14.50;;
28343;SDS011;15597;50.914;6.638;2023-04-29T07:58:02;13.25;;;6.72;;
28343;SDS011;15597;50.914;6.638;2023-04-29T08:00:27;15.35;;;7.35;;
28343;SDS011;15597;50.914;6.638;2023-04-29T08:02:53;15.13;;;8.05;;
28343;SDS011;15597;50.914;6.638;2023-04-29T08:05:21;15.55;;;7.90;;
28343;SDS011;15597;50.914;6.638;2023-04-29T08:07:50;16.33;;;7.22;;
28343;SDS011;15597;50.914;6.638;2023-04-29T08:10:16;15.45;;;6.97;;
28343;SDS011;15597;50.914;6.638;2023-04-29T08:12:46;18.15;;;7.93;;
28343;SDS011;15597;50.914;6.638;2023-04-29T08:15:12;11.57;;;5.60;;
28343;SDS011;15597;50.914;6.638;2023-04-29T08:17:38;14.02;;;6.40;;
28343;SDS011;15597;50.914;6.638;2023-04-29T08:20:04;13.60;;;6.68;;
28343;SDS011;15597;50.914;6.638;2023-04-29T08:22:31;13.27;;;6.47;;
28343;SDS011;15597;50.914;6.638;2023-04-29T08:24:57;15.23;;;6.95;;
28343;SDS011;15597;50.914;6.638;2023-04-29T08:27:23;14.02;;;6.68;;
28343;SDS011;15597;50.914;6.638;2023-04-29T08:29:48;10.68;;;5.57;;
28343;SDS011;15597;50.914;6.638;2023-04-29T08:32:15;11.38;;;5.70;;
28343;SDS011;15597;50.914;6.638;2023-04-29T08:34:40;11.82;;;6.35;;
28343;SDS011;15597;50.914;6.638;2023-04-29T08:37:06;13.30;;;7.22;;
28343;SDS011;15597;50.914;6.638;2023-04-29T08:39:32;12.02;;;6.03;;
28343;SDS011;15597;50.914;6.638;2023-04-29T08:41:57;11.90;;;6.38;;
28343;SDS011;15597;50.914;6.638;2023-04-29T08:44:27;11.82;;;6.43;;
28343;SDS011;15597;50.914;6.638;2023-04-29T08:46:54;12.50;;;5.57;;
28343;SDS011;15597;50.914;6.638;2023-04-29T08:49:20;11.38;;;5.50;;
28343;SDS011;15597;50.914;6.638;2023-04-29T08:51:48;12.23;;;5.88;;
28343;SDS011;15597;50.914;6.638;2023-04-29T08:54:16;11.80;;;4.60;;
28343;SDS011;15597;50.914;6.638;2023-04-29T08:56:43;13.80;;;6.50;;
28343;SDS011;15597;50.914;6.638;2023-04-29T08:59:10;12.00;;;5.95;;
28343;SDS011;15597;50.914;6.638;2023-04-29T09:01:37;14.63;;;7.18;;
28343;SDS011;15597;50.914;6.638;2023-04-29T09:06:59;13.75;;;7.03;;
28343;SDS011;15597;50.914;6.638;2023-04-29T09:09:25;11.25;;;5.72;;
28343;SDS011;15597;50.914;6.638;2023-04-29T09:11:52;10.30;;;5.05;;
28343;SDS011;15597;50.914;6.638;2023-04-29T09:14:19;11.57;;;6.30;;
28343;SDS011;15597;50.914;6.638;2023-04-29T09:16:47;12.15;;;6.30;;
28343;SDS011;15597;50.914;6.638;2023-04-29T09:19:28;11.63;;;6.03;;
28343;SDS011;15597;50.914;6.638;2023-04-29T09:22:01;10.15;;;5.05;;
28343;SDS011;15597;50.914;6.638;2023-04-29T09:24:29;13.15;;;6.30;;
28343;SDS011;15597;50.914;6.638;2023-04-29T09:26:56;12.98;;;6.32;;
28343;SDS011;15597;50.914;6.638;2023-04-29T09:29:23;13.75;;;6.72;;
28343;SDS011;15597;50.914;6.638;2023-04-29T09:31:49;9.18;;;4.35;;
28343;SDS011;15597;50.914;6.638;2023-04-29T09:34:18;10.68;;;5.07;;
28343;SDS011;15597;50.914;6.638;2023-04-29T09:37:22;12.07;;;5.70;;
28343;SDS011;15597;50.914;6.638;2023-04-29T09:39:48;12.43;;;6.20;;
28343;SDS011;15597;50.914;6.638;2023-04-29T09:42:14;15.30;;;7.70;;
28343;SDS011;15597;50.914;6.638;2023-04-29T09:44:40;9.10;;;4.32;;
28343;SDS011;15597;50.914;6.638;2023-04-29T09:47:07;11.90;;;6.05;;
28343;SDS011;15597;50.914;6.638;2023-04-29T09:49:36;13.85;;;6.75;;
28343;SDS011;15597;50.914;6.638;2023-04-29T09:52:06;13.00;;;7.22;;
28343;SDS011;15597;50.914;6.638;2023-04-29T09:54:34;8.50;;;4.50;;
28343;SDS011;15597;50.914;6.638;2023-04-29T09:57:01;17.23;;;7.70;;
28343;SDS011;15597;50.914;6.638;2023-04-29T09:59:30;12.32;;;6.28;;
28343;SDS011;15597;50.914;6.638;2023-04-29T10:01:57;10.60;;;5.43;;
28343;SDS011;15597;50.914;6.638;2023-04-29T10:04:23;13.55;;;7.28;;
28343;SDS011;15597;50.914;6.638;2023-04-29T10:06:52;10.13;;;5.15;;
28343;SDS011;15597;50.914;6.638;2023-04-29T10:09:19;9.30;;;4.50;;
28343;SDS011;15597;50.914;6.638;2023-04-29T10:11:47;7.95;;;3.92;;
28343;SDS011;15597;50.914;6.638;2023-04-29T10:14:15;9.27;;;5.03;;
28343;SDS011;15597;50.914;6.638;2023-04-29T10:16:44;10.85;;;5.43;;
28343;SDS011;15597;50.914;6.638;2023-04-29T10:19:20;13.05;;;6.63;;
28343;SDS011;15597;50.914;6.638;2023-04-29T10:21:50;13.68;;;4.90;;
28343;SDS011;15597;50.914;6.638;2023-04-29T10:24:19;14.80;;;7.68;;
28343;SDS011;15597;50.914;6.638;2023-04-29T10:26:46;9.77;;;5.28;;
28343;SDS011;15597;50.914;6.638;2023-04-29T10:29:16;10.82;;;6.03;;
28343;SDS011;15597;50.914;6.638;2023-04-29T10:31:43;8.73;;;4.65;;
28343;SDS011;15597;50.914;6.638;2023-04-29T10:34:10;11.15;;;5.30;;
28343;SDS011;15597;50.914;6.638;2023-04-29T10:36:37;9.18;;;4.70;;
28343;SDS011;15597;50.914;6.638;2023-04-29T10:39:04;12.95;;;6.45;;
28343;SDS011;15597;50.914;6.638;2023-04-29T10:41:42;11.18;;;5.90;;
28343;SDS011;15597;50.914;6.638;2023-04-29T10:44:11;11.82;;;6.88;;
28343;SDS011;15597;50.914;6.638;2023-04-29T10:46:38;12.25;;;5.35;;
28343;SDS011;15597;50.914;6.638;2023-04-29T10:49:04;14.50;;;7.38;;
28343;SDS011;15597;50.914;6.638;2023-04-29T10:51:32;10.52;;;5.57;;
28343;SDS011;15597;50.914;6.638;2023-04-29T10:53:58;16.42;;;8.57;;
28343;SDS011;15597;50.914;6.638;2023-04-29T10:56:34;13.55;;;7.15;;
28343;SDS011;15597;50.914;6.638;2023-04-29T10:59:01;11.82;;;6.20;;
28343;SDS011;15597;50.914;6.638;2023-04-29T11:01:39;10.02;;;5.88;;
28343;SDS011;15597;50.914;6.638;2023-04-29T11:04:06;21.55;;;18.13;;
28343;SDS011;15597;50.914;6.638;2023-04-29T11:14:10;14.20;;;8.10;;
28343;SDS011;15597;50.914;6.638;2023-04-29T11:16:37;13.15;;;6.72;;
28343;SDS011;15597;50.914;6.638;2023-04-29T11:19:13;14.98;;;8.27;;
28343;SDS011;15597;50.914;6.638;2023-04-29T11:21:39;14.82;;;8.27;;
28343;SDS011;15597;50.914;6.638;2023-04-29T11:24:05;12.88;;;7.57;;
28343;SDS011;15597;50.914;6.638;2023-04-29T11:26:34;13.95;;;8.05;;
28343;SDS011;15597;50.914;6.638;2023-04-29T11:29:00;15.38;;;7.68;;
28343;SDS011;15597;50.914;6.638;2023-04-29T11:31:29;17.55;;;8.75;;
28343;SDS011;15597;50.914;6.638;2023-04-29T11:33:55;15.48;;;8.35;;
28343;SDS011;15597;50.914;6.638;2023-04-29T11:36:21;13.90;;;7.65;;
28343;SDS011;15597;50.914;6.638;2023-04-29T11:38:47;19.35;;;10.23;;
28343;SDS011;15597;50.914;6.638;2023-04-29T11:41:12;17.05;;;8.43;;
28343;SDS011;15597;50.914;6.638;2023-04-29T11:43:39;15.32;;;7.70;;
28343;SDS011;15597;50.914;6.638;2023-04-29T11:46:14;14.68;;;8.13;;
28343;SDS011;15597;50.914;6.638;2023-04-29T11:48:47;14.63;;;8.23;;
28343;SDS011;15597;50.914;6.638;2023-04-29T11:51:14;14.55;;;7.68;;
28343;SDS011;15597;50.914;6.638;2023-04-29T11:53:40;17.38;;;8.63;;
28343;SDS011;15597;50.914;6.638;2023-04-29T11:56:09;18.50;;;9.30;;
28343;SDS011;15597;50.914;6.638;2023-04-29T11:58:35;21.23;;;10.07;;
28343;SDS011;15597;50.914;6.638;2023-04-29T12:01:02;25.17;;;12.98;;
28343;SDS011;15597;50.914;6.638;2023-04-29T12:03:30;17.10;;;9.50;;
28343;SDS011;15597;50.914;6.638;2023-04-29T12:05:56;20.45;;;11.02;;
28343;SDS011;15597;50.914;6.638;2023-04-29T12:08:23;17.42;;;9.07;;
28343;SDS011;15597;50.914;6.638;2023-04-29T12:10:50;21.67;;;11.23;;
28343;SDS011;15597;50.914;6.638;2023-04-29T12:13:17;19.33;;;10.80;;
28343;SDS011;15597;50.914;6.638;2023-04-29T12:15:47;17.77;;;10.02;;
28343;SDS011;15597;50.914;6.638;2023-04-29T12:18:15;21.00;;;10.57;;
28343;SDS011;15597;50.914;6.638;2023-04-29T12:20:45;20.50;;;10.85;;
28343;SDS011;15597;50.914;6.638;2023-04-29T12:23:12;22.85;;;11.15;;
28343;SDS011;15597;50.914;6.638;2023-04-29T12:25:39;19.75;;;10.98;;
28343;SDS011;15597;50.914;6.638;2023-04-29T12:28:10;19.25;;;11.10;;
28343;SDS011;15597;50.914;6.638;2023-04-29T12:30:40;21.83;;;11.45;;
28343;SDS011;15597;50.914;6.638;2023-04-29T12:33:08;23.55;;;12.45;;
28343;SDS011;15597;50.914;6.638;2023-04-29T12:35:35;19.67;;;10.60;;
28343;SDS011;15597;50.914;6.638;2023-04-29T12:38:01;20.50;;;10.85;;
28343;SDS011;15597;50.914;6.638;2023-04-29T12:40:27;18.55;;;10.55;;
28343;SDS011;15597;50.914;6.638;2023-04-29T12:42:53;24.83;;;11.95;;
28343;SDS011;15597;50.914;6.638;2023-04-29T12:45:31;23.05;;;11.98;;
28343;SDS011;15597;50.914;6.638;2023-04-29T12:47:59;21.15;;;11.60;;
28343;SDS011;15597;50.914;6.638;2023-04-29T12:50:29;21.13;;;11.65;;
28343;SDS011;15597;50.914;6.638;2023-04-29T12:52:57;22.23;;;11.27;;
28343;SDS011;15597;50.914;6.638;2023-04-29T12:55:23;22.15;;;11.13;;
28343;SDS011;15597;50.914;6.638;2023-04-29T12:57:48;22.27;;;11.63;;
28343;SDS011;15597;50.914;6.638;2023-04-29T13:00:15;18.45;;;9.57;;
28343;SDS011;15597;50.914;6.638;2023-04-29T13:02:40;22.52;;;12.02;;
28343;SDS011;15597;50.914;6.638;2023-04-29T13:05:06;21.90;;;11.73;;
28343;SDS011;15597;50.914;6.638;2023-04-29T13:07:32;25.30;;;13.23;;
28343;SDS011;15597;50.914;6.638;2023-04-29T13:09:57;33.45;;;17.55;;
28343;SDS011;15597;50.914;6.638;2023-04-29T13:12:23;27.40;;;13.90;;
28343;SDS011;15597;50.914;6.638;2023-04-29T13:14:48;24.75;;;13.15;;
28343;SDS011;15597;50.914;6.638;2023-04-29T13:17:15;23.88;;;12.98;;
28343;SDS011;15597;50.914;6.638;2023-04-29T13:19:41;19.15;;;10.63;;
28343;SDS011;15597;50.914;6.638;2023-04-29T13:22:08;20.45;;;12.05;;
28343;SDS011;15597;50.914;6.638;2023-04-29T13:24:34;22.13;;;12.60;;
28343;SDS011;15597;50.914;6.638;2023-04-29T13:27:01;30.48;;;17.25;;
28343;SDS011;15597;50.914;6.638;2023-04-29T13:29:28;23.92;;;14.55;;
28343;SDS011;15597;50.914;6.638;2023-04-29T13:31:53;31.45;;;17.70;;
28343;SDS011;15597;50.914;6.638;2023-04-29T13:34:19;29.92;;;16.08;;
28343;SDS011;15597;50.914;6.638;2023-04-29T13:36:45;36.47;;;19.50;;
28343;SDS011;15597;50.914;6.638;2023-04-29T13:39:11;33.75;;;17.30;;
28343;SDS011;15597;50.914;6.638;2023-04-29T13:41:36;34.65;;;18.48;;
28343;SDS011;15597;50.914;6.638;2023-04-29T13:44:02;25.55;;;14.70;;
28343;SDS011;15597;50.914;6.638;2023-04-29T13:46:27;41.20;;;19.23;;
28343;SDS011;15597;50.914;6.638;2023-04-29T13:48:53;33.08;;;17.95;;
28343;SDS011;15597;50.914;6.638;2023-04-29T13:51:18;32.33;;;18.30;;
28343;SDS011;15597;50.914;6.638;2023-04-29T13:53:44;39.70;;;20.67;;
28343;SDS011;15597;50.914;6.638;2023-04-29T13:56:11;30.88;;;16.70;;
28343;SDS011;15597;50.914;6.638;2023-04-29T13:58:37;37.40;;;19.48;;
28343;SDS011;15597;50.914;6.638;2023-04-29T14:01:03;28.60;;;15.52;;
28343;SDS011;15597;50.914;6.638;2023-04-29T14:03:28;31.02;;;17.55;;
28343;SDS011;15597;50.914;6.638;2023-04-29T14:05:54;38.58;;;21.30;;
28343;SDS011;15597;50.914;6.638;2023-04-29T14:08:19;28.58;;;15.23;;
28343;SDS011;15597;50.914;6.638;2023-04-29T14:10:45;37.15;;;19.67;;
28343;SDS011;15597;50.914;6.638;2023-04-29T14:13:11;29.38;;;16.08;;
28343;SDS011;15597;50.914;6.638;2023-04-29T14:15:37;32.25;;;16.90;;
28343;SDS011;15597;50.914;6.638;2023-04-29T14:18:02;29.80;;;16.40;;
28343;SDS011;15597;50.914;6.638;2023-04-29T14:20:28;36.25;;;19.85;;
28343;SDS011;15597;50.914;6.638;2023-04-29T14:22:54;38.08;;;19.83;;
28343;SDS011;15597;50.914;6.638;2023-04-29T14:25:19;31.25;;;17.17;;
28343;SDS011;15597;50.914;6.638;2023-04-29T14:27:45;33.50;;;18.23;;
28343;SDS011;15597;50.914;6.638;2023-04-29T14:30:13;27.33;;;15.48;;
28343;SDS011;15597;50.914;6.638;2023-04-29T14:32:39;32.58;;;16.92;;
28343;SDS011;15597;50.914;6.638;2023-04-29T14:35:05;28.85;;;15.65;;
28343;SDS011;15597;50.914;6.638;2023-04-29T14:37:31;33.83;;;18.77;;
28343;SDS011;15597;50.914;6.638;2023-04-29T14:39:56;31.70;;;17.25;;
28343;SDS011;15597;50.914;6.638;2023-04-29T14:42:22;34.28;;;18.55;;
28343;SDS011;15597;50.914;6.638;2023-04-29T14:44:47;31.98;;;19.15;;
28343;SDS011;15597;50.914;6.638;2023-04-29T14:47:13;31.33;;;17.50;;
28343;SDS011;15597;50.914;6.638;2023-04-29T14:49:38;28.00;;;16.58;;
28343;SDS011;15597;50.914;6.638;2023-04-29T14:52:05;28.30;;;16.60;;
28343;SDS011;15597;50.914;6.638;2023-04-29T14:54:30;27.50;;;15.25;;
28343;SDS011;15597;50.914;6.638;2023-04-29T14:56:56;31.25;;;17.70;;
28343;SDS011;15597;50.914;6.638;2023-04-29T14:59:21;32.08;;;18.23;;